Terminal Aerodrome Forecast
Issued by NWS

Current Version | Previous Version | Text Only | Print | Product List | Glossary On
Versions: 1 2 3 4 5 6 7 8 9 10 11 12 13 14 15 16 17 18 19 20 21
370
FTUS46 KLOX 172334
TAFSBA
TAF
KSBA 172334Z 1800/1824 27010KT P6SM SKC
     FM180400 VRB03KT P6SM SKC
     FM180600 10006KT P6SM SKC
     FM180900 11007KT 5SM BR BKN007
     FM181400 10005KT 3SM BR OVC004
     FM181700 17005KT 6SM BR BKN009
     FM182000 23008KT P6SM SKC=

USA.gov is the U.S. government's official web portal to all federal, state and local government web resources and services.